sensor_id;sensor_type;location;lat;lon;timestamp;pressure;altitude;pressure_sealevel;temperature;humidity
79242;BME280;68670;48.720;9.118;2024-03-08T00:00:17;96738.63;;;1.84;94.17
79242;BME280;68670;48.720;9.118;2024-03-08T00:02:46;96745.44;;;1.80;94.68
79242;BME280;68670;48.720;9.118;2024-03-08T00:05:15;96741.47;;;1.76;94.43
79242;BME280;68670;48.720;9.118;2024-03-08T00:07:41;96741.00;;;1.72;94.27
79242;BME280;68670;48.720;9.118;2024-03-08T00:10:11;96739.31;;;1.71;93.69
79242;BME280;68670;48.720;9.118;2024-03-08T00:12:41;96738.81;;;1.61;94.49
79242;BME280;68670;48.720;9.118;2024-03-08T00:15:10;96734.31;;;1.68;94.32
79242;BME280;68670;48.720;9.118;2024-03-08T00:17:38;96722.88;;;1.66;94.04
79242;BME280;68670;48.720;9.118;2024-03-08T00:20:04;96724.22;;;1.55;94.07
79242;BME280;68670;48.720;9.118;2024-03-08T00:22:32;96736.13;;;1.61;93.84
79242;BME280;68670;48.720;9.118;2024-03-08T00:24:57;96733.53;;;1.53;94.33
79242;BME280;68670;48.720;9.118;2024-03-08T00:27:25;96738.66;;;1.48;94.41
79242;BME280;68670;48.720;9.118;2024-03-08T00:29:50;96731.59;;;1.47;94.44
79242;BME280;68670;48.720;9.118;2024-03-08T00:32:15;96726.56;;;1.44;94.49
79242;BME280;68670;48.720;9.118;2024-03-08T00:34:42;96721.44;;;1.49;94.89
79242;BME280;68670;48.720;9.118;2024-03-08T00:37:08;96719.50;;;1.43;94.33
79242;BME280;68670;48.720;9.118;2024-03-08T00:39:35;96712.44;;;1.42;94.76
79242;BME280;68670;48.720;9.118;2024-03-08T00:42:01;96718.66;;;1.42;94.15
79242;BME280;68670;48.720;9.118;2024-03-08T00:44:26;96716.16;;;1.41;94.87
79242;BME280;68670;48.720;9.118;2024-03-08T00:46:54;96719.50;;;1.43;94.51
79242;BME280;68670;48.720;9.118;2024-03-08T00:49:21;96710.69;;;1.34;95.24
79242;BME280;68670;48.720;9.118;2024-03-08T00:51:49;96716.88;;;1.28;95.30
79242;BME280;68670;48.720;9.118;2024-03-08T00:54:14;96707.66;;;1.22;95.10
79242;BME280;68670;48.720;9.118;2024-03-08T00:56:41;96707.19;;;1.19;95.34
79242;BME280;68670;48.720;9.118;2024-03-08T00:59:11;96709.25;;;1.17;95.52
79242;BME280;68670;48.720;9.118;2024-03-08T01:01:39;96703.38;;;1.13;95.64
79242;BME280;68670;48.720;9.118;2024-03-08T01:04:07;96700.13;;;1.18;95.17
79242;BME280;68670;48.720;9.118;2024-03-08T01:06:33;96695.41;;;1.05;95.66
79242;BME280;68670;48.720;9.118;2024-03-08T01:09:04;96691.69;;;1.06;96.40
79242;BME280;68670;48.720;9.118;2024-03-08T01:11:35;96688.72;;;1.01;95.92
79242;BME280;68670;48.720;9.118;2024-03-08T01:14:03;96690.84;;;1.06;95.52
79242;BME280;68670;48.720;9.118;2024-03-08T01:16:28;96690.84;;;1.06;95.54
79242;BME280;68670;48.720;9.118;2024-03-08T01:18:53;96685.81;;;1.02;95.68
79242;BME280;68670;48.720;9.118;2024-03-08T01:21:21;96684.28;;;0.93;96.02
79242;BME280;68670;48.720;9.118;2024-03-08T01:23:49;96683.53;;;0.85;96.80
79242;BME280;68670;48.720;9.118;2024-03-08T01:26:17;96673.78;;;0.84;97.08
79242;BME280;68670;48.720;9.118;2024-03-08T01:28:44;96666.06;;;0.81;96.97
79242;BME280;68670;48.720;9.118;2024-03-08T01:31:17;96669.31;;;0.76;97.06
79242;BME280;68670;48.720;9.118;2024-03-08T01:33:44;96659.38;;;0.77;96.89
79242;BME280;68670;48.720;9.118;2024-03-08T01:36:10;96663.84;;;0.70;96.87
79242;BME280;68670;48.720;9.118;2024-03-08T01:38:40;96662.53;;;0.65;97.29
79242;BME280;68670;48.720;9.118;2024-03-08T01:41:10;96655.03;;;0.61;97.46
79242;BME280;68670;48.720;9.118;2024-03-08T01:43:38;96653.28;;;0.53;97.75
79242;BME280;68670;48.720;9.118;2024-03-08T01:46:07;96655.78;;;0.55;98.25
79242;BME280;68670;48.720;9.118;2024-03-08T01:48:34;96645.94;;;0.47;98.28
79242;BME280;68670;48.720;9.118;2024-03-08T01:51:00;96640.06;;;0.44;98.08
79242;BME280;68670;48.720;9.118;2024-03-08T01:53:26;96637.75;;;0.41;98.67
79242;BME280;68670;48.720;9.118;2024-03-08T01:55:54;96631.53;;;0.40;99.08
79242;BME280;68670;48.720;9.118;2024-03-08T01:58:22;96628.19;;;0.38;99.10
79242;BME280;68670;48.720;9.118;2024-03-08T02:00:48;96633.94;;;0.35;99.04
79242;BME280;68670;48.720;9.118;2024-03-08T02:03:19;96622.78;;;0.38;99.19
79242;BME280;68670;48.720;9.118;2024-03-08T02:05:45;96616.09;;;0.34;99.58
79242;BME280;68670;48.720;9.118;2024-03-08T02:08:11;96614.81;;;0.30;98.81
79242;BME280;68670;48.720;9.118;2024-03-08T02:10:40;96611.81;;;0.40;98.69
79242;BME280;68670;48.720;9.118;2024-03-08T02:13:07;96605.06;;;0.44;98.50
79242;BME280;68670;48.720;9.118;2024-03-08T02:15:52;96607.00;;;0.35;98.47
79242;BME280;68670;48.720;9.118;2024-03-08T02:18:18;96595.31;;;0.28;98.51
79242;BME280;68670;48.720;9.118;2024-03-08T02:23:22;96600.78;;;0.20;99.18
79242;BME280;68670;48.720;9.118;2024-03-08T02:25:48;96598.84;;;0.14;99.07
79242;BME280;68670;48.720;9.118;2024-03-08T02:28:16;96595.88;;;0.09;99.11
79242;BME280;68670;48.720;9.118;2024-03-08T02:30:45;96592.16;;;0.10;98.89
79242;BME280;68670;48.720;9.118;2024-03-08T02:33:13;96582.78;;;0.20;98.57
79242;BME280;68670;48.720;9.118;2024-03-08T02:35:41;96586.97;;;0.23;98.36
79242;BME280;68670;48.720;9.118;2024-03-08T02:38:07;96585.75;;;0.25;98.17
79242;BME280;68670;48.720;9.118;2024-03-08T02:40:35;96585.47;;;0.20;98.03
79242;BME280;68670;48.720;9.118;2024-03-08T02:43:03;96574.97;;;0.11;97.42
79242;BME280;68670;48.720;9.118;2024-03-08T02:45:30;96573.97;;;0.12;98.17
79242;BME280;68670;48.720;9.118;2024-03-08T02:48:00;96571.91;;;0.14;97.64
79242;BME280;68670;48.720;9.118;2024-03-08T02:50:25;96573.88;;;0.20;97.72
79242;BME280;68670;48.720;9.118;2024-03-08T02:52:51;96568.75;;;0.25;97.12
79242;BME280;68670;48.720;9.118;2024-03-08T02:55:17;96573.59;;;0.29;97.16
79242;BME280;68670;48.720;9.118;2024-03-08T02:57:45;96567.94;;;0.24;96.72
79242;BME280;68670;48.720;9.118;2024-03-08T03:00:13;96564.41;;;0.24;96.93
79242;BME280;68670;48.720;9.118;2024-03-08T03:02:41;96560.69;;;0.25;97.00
79242;BME280;68670;48.720;9.118;2024-03-08T03:05:08;96566.16;;;0.17;97.35
79242;BME280;68670;48.720;9.118;2024-03-08T03:07:35;96559.84;;;0.10;97.27
79242;BME280;68670;48.720;9.118;2024-03-08T03:10:03;96560.94;;;0.00;97.90
79242;BME280;68670;48.720;9.118;2024-03-08T03:12:30;96559.31;;;-0.01;97.95
79242;BME280;68670;48.720;9.118;2024-03-08T03:14:59;96554.81;;;0.07;97.76
79242;BME280;68670;48.720;9.118;2024-03-08T03:17:24;96560.22;;;0.07;96.98
79242;BME280;68670;48.720;9.118;2024-03-08T03:19:52;96560.22;;;0.07;96.91
79242;BME280;68670;48.720;9.118;2024-03-08T03:22:20;96547.69;;;-0.01;97.72
79242;BME280;68670;48.720;9.118;2024-03-08T03:24:48;96549.56;;;-0.02;97.36
79242;BME280;68670;48.720;9.118;2024-03-08T03:27:17;96540.72;;;-0.10;98.16
79242;BME280;68670;48.720;9.118;2024-03-08T03:29:43;96555.56;;;-0.14;98.29
79242;BME280;68670;48.720;9.118;2024-03-08T03:32:14;96543.97;;;-0.15;98.43
79242;BME280;68670;48.720;9.118;2024-03-08T03:34:40;96544.25;;;-0.10;98.12
79242;BME280;68670;48.720;9.118;2024-03-08T03:37:06;96536.91;;;-0.16;98.16
79242;BME280;68670;48.720;9.118;2024-03-08T03:39:37;96540.25;;;-0.14;98.34
79242;BME280;68670;48.720;9.118;2024-03-08T03:42:13;96533.84;;;-0.13;98.28
79242;BME280;68670;48.720;9.118;2024-03-08T03:44:39;96530.16;;;-0.12;98.28
79242;BME280;68670;48.720;9.118;2024-03-08T03:47:07;96530.53;;;-0.15;98.12
79242;BME280;68670;48.720;9.118;2024-03-08T03:49:32;96518.09;;;-0.16;98.29
79242;BME280;68670;48.720;9.118;2024-03-08T03:52:00;96523.38;;;-0.22;98.56
79242;BME280;68670;48.720;9.118;2024-03-08T03:54:29;96534.50;;;-0.25;98.64
79242;BME280;68670;48.720;9.118;2024-03-08T03:56:56;96531.91;;;-0.33;98.89
79242;BME280;68670;48.720;9.118;2024-03-08T03:59:23;96535.16;;;-0.38;99.25
79242;BME280;68670;48.720;9.118;2024-03-08T04:01:52;96536.53;;;-0.42;99.67
79242;BME280;68670;48.720;9.118;2024-03-08T04:04:20;96530.97;;;-0.41;99.62
79242;BME280;68670;48.720;9.118;2024-03-08T04:06:46;96531.81;;;-0.40;99.24
79242;BME280;68670;48.720;9.118;2024-03-08T04:09:13;96529.19;;;-0.48;99.87
79242;BME280;68670;48.720;9.118;2024-03-08T04:11:39;96530.22;;;-0.49;100.00
79242;BME280;68670;48.720;9.118;2024-03-08T04:14:08;96522.25;;;-0.43;100.00
79242;BME280;68670;48.720;9.118;2024-03-08T04:16:38;96522.88;;;-0.55;99.95
79242;BME280;68670;48.720;9.118;2024-03-08T04:19:04;96523.22;;;-0.58;100.00
79242;BME280;68670;48.720;9.118;2024-03-08T04:21:32;96522.88;;;-0.55;100.00
79242;BME280;68670;48.720;9.118;2024-03-08T04:23:57;96515.53;;;-0.61;100.00
79242;BME280;68670;48.720;9.118;2024-03-08T04:26:25;96517.19;;;-0.60;100.00
79242;BME280;68670;48.720;9.118;2024-03-08T04:28:51;96513.19;;;-0.64;100.00
79242;BME280;68670;48.720;9.118;2024-03-08T04:31:19;96511.44;;;-0.72;100.00
79242;BME280;68670;48.720;9.118;2024-03-08T04:33:44;96510.59;;;-0.73;100.00
79242;BME280;68670;48.720;9.118;2024-03-08T04:36:11;96516.94;;;-0.65;100.00
79242;BME280;68670;48.720;9.118;2024-03-08T04:38:39;96512.75;;;-0.68;100.00
79242;BME280;68670;48.720;9.118;2024-03-08T04:41:07;96504.69;;;-0.68;100.00
79242;BME280;68670;48.720;9.118;2024-03-08T04:43:35;96504.88;;;-0.70;100.00
79242;BME280;68670;48.720;9.118;2024-03-08T04:46:01;96503.56;;;-0.74;100.00
79242;BME280;68670;48.720;9.118;2024-03-08T04:48:29;96512.16;;;-0.78;100.00
79242;BME280;68670;48.720;9.118;2024-03-08T04:50:59;96502.25;;;-0.78;100.00
79242;BME280;68670;48.720;9.118;2024-03-08T04:53:25;96500.94;;;-0.82;100.00
79242;BME280;68670;48.720;9.118;2024-03-08T04:55:52;96497.94;;;-0.87;100.00
79242;BME280;68670;48.720;9.118;2024-03-08T04:58:22;96496.94;;;-0.86;100.00
79242;BME280;68670;48.720;9.118;2024-03-08T05:00:48;96493.78;;;-0.89;100.00
79242;BME280;68670;48.720;9.118;2024-03-08T05:03:13;96490.63;;;-0.93;100.00
79242;BME280;68670;48.720;9.118;2024-03-08T05:05:41;96493.66;;;-0.96;100.00
79242;BME280;68670;48.720;9.118;2024-03-08T05:08:06;96498.19;;;-0.96;100.00
79242;BME280;68670;48.720;9.118;2024-03-08T05:10:34;96491.28;;;-0.91;100.00
79242;BME280;68670;48.720;9.118;2024-03-08T05:13:03;96492.38;;;-1.00;100.00
79242;BME280;68670;48.720;9.118;2024-03-08T05:15:33;96492.47;;;-0.93;100.00
79242;BME280;68670;48.720;9.118;2024-03-08T05:18:00;96484.50;;;-1.02;100.00
79242;BME280;68670;48.720;9.118;2024-03-08T05:20:25;96496.09;;;-1.01;100.00
79242;BME280;68670;48.720;9.118;2024-03-08T05:22:51;96487.00;;;-1.00;100.00
79242;BME280;68670;48.720;9.118;2024-03-08T05:25:20;96491.06;;;-1.04;100.00
79242;BME280;68670;48.720;9.118;2024-03-08T05:27:46;96479.97;;;-1.01;100.00
79242;BME280;68670;48.720;9.118;2024-03-08T05:30:14;96489.50;;;-0.98;100.00
79242;BME280;68670;48.720;9.118;2024-03-08T05:32:43;96492.00;;;-0.97;100.00
79242;BME280;68670;48.720;9.118;2024-03-08T05:35:11;96481.44;;;-0.98;100.00
79242;BME280;68670;48.720;9.118;2024-03-08T05:37:39;96480.50;;;-1.06;100.00
79242;BME280;68670;48.720;9.118;2024-03-08T05:40:09;96485.41;;;-1.09;100.00
79242;BME280;68670;48.720;9.118;2024-03-08T05:42:37;96475.19;;;-1.14;100.00
79242;BME280;68670;48.720;9.118;2024-03-08T05:45:05;96485.09;;;-1.14;100.00
79242;BME280;68670;48.720;9.118;2024-03-08T05:47:31;96485.22;;;-1.08;100.00
79242;BME280;68670;48.720;9.118;2024-03-08T05:49:58;96475.31;;;-1.07;100.00
79242;BME280;68670;48.720;9.118;2024-03-08T05:52:23;96479.72;;;-1.14;100.00
79242;BME280;68670;48.720;9.118;2024-03-08T05:54:48;96481.09;;;-1.18;100.00
79242;BME280;68670;48.720;9.118;2024-03-08T05:57:14;96471.84;;;-1.16;100.00
79242;BME280;68670;48.720;9.118;2024-03-08T05:59:41;96481.75;;;-1.16;100.00
79242;BME280;68670;48.720;9.118;2024-03-08T06:02:07;96482.47;;;-1.22;100.00
79242;BME280;68670;48.720;9.118;2024-03-08T06:04:35;96474.22;;;-1.21;100.00
79242;BME280;68670;48.720;9.118;2024-03-08T06:07:00;96483.31;;;-1.22;100.00
79242;BME280;68670;48.720;9.118;2024-03-08T06:09:28;96474.75;;;-1.25;100.00
79242;BME280;68670;48.720;9.118;2024-03-08T06:11:53;96484.78;;;-1.19;100.00
79242;BME280;68670;48.720;9.118;2024-03-08T06:14:21;96479.38;;;-1.11;100.00
79242;BME280;68670;48.720;9.118;2024-03-08T06:16:49;96470.88;;;-1.00;100.00
79242;BME280;68670;48.720;9.118;2024-03-08T06:19:19;96480.31;;;-1.04;100.00
79242;BME280;68670;48.720;9.118;2024-03-08T06:21:47;96479.59;;;-0.98;100.00
79242;BME280;68670;48.720;9.118;2024-03-08T06:24:13;96474.75;;;-1.03;100.00
79242;BME280;68670;48.720;9.118;2024-03-08T06:26:40;96479.97;;;-1.01;100.00
79242;BME280;68670;48.720;9.118;2024-03-08T06:29:08;96478.28;;;-1.02;100.00
79242;BME280;68670;48.720;9.118;2024-03-08T06:31:33;96488.28;;;-0.96;100.00
79242;BME280;68670;48.720;9.118;2024-03-08T06:34:04;96473.28;;;-1.05;100.00
79242;BME280;68670;48.720;9.118;2024-03-08T06:36:37;96487.38;;;-1.03;100.00
79242;BME280;68670;48.720;9.118;2024-03-08T06:39:07;96486.25;;;-0.94;100.00
79242;BME280;68670;48.720;9.118;2024-03-08T06:41:36;96478.00;;;-0.92;100.00
79242;BME280;68670;48.720;9.118;2024-03-08T06:44:01;96485.00;;;-0.83;100.00
79242;BME280;68670;48.720;9.118;2024-03-08T06:46:29;96476.38;;;-0.79;100.00
79242;BME280;68670;48.720;9.118;2024-03-08T06:48:54;96477.16;;;-0.70;100.00
79242;BME280;68670;48.720;9.118;2024-03-08T06:51:20;96465.09;;;-0.59;100.00
79242;BME280;68670;48.720;9.118;2024-03-08T06:53:45;96463.69;;;-0.55;100.00
79242;BME280;68670;48.720;9.118;2024-03-08T06:56:13;96482.72;;;-0.42;100.00
79242;BME280;68670;48.720;9.118;2024-03-08T06:58:38;96474.94;;;-0.37;100.00
79242;BME280;68670;48.720;9.118;2024-03-08T07:01:04;96475.09;;;-0.24;100.00
79242;BME280;68670;48.720;9.118;2024-03-08T07:03:32;96472.06;;;-0.21;100.00
79242;BME280;68670;48.720;9.118;2024-03-08T07:05:57;96479.66;;;-0.10;100.00
79242;BME280;68670;48.720;9.118;2024-03-08T07:08:25;96469.41;;;0.00;100.00
79242;BME280;68670;48.720;9.118;2024-03-08T07:10:54;96476.19;;;0.11;99.87
79242;BME280;68670;48.720;9.118;2024-03-08T07:13:22;96476.75;;;0.21;99.92
79242;BME280;68670;48.720;9.118;2024-03-08T07:15:47;96470.41;;;0.29;99.44
79242;BME280;68670;48.720;9.118;2024-03-08T07:18:12;96470.72;;;0.41;98.67
79242;BME280;68670;48.720;9.118;2024-03-08T07:20:42;96471.19;;;0.44;98.73
79242;BME280;68670;48.720;9.118;2024-03-08T07:23:10;96474.03;;;0.57;98.46
79242;BME280;68670;48.720;9.118;2024-03-08T07:25:56;96468.91;;;0.62;96.92
79242;BME280;68670;48.720;9.118;2024-03-08T07:28:21;96468.13;;;0.68;97.11
79242;BME280;68670;48.720;9.118;2024-03-08T07:30:49;96465.69;;;0.74;96.77
79242;BME280;68670;48.720;9.118;2024-03-08T07:33:16;96465.56;;;0.82;96.58
79242;BME280;68670;48.720;9.118;2024-03-08T07:35:42;96463.13;;;0.87;96.02
79242;BME280;68670;48.720;9.118;2024-03-08T07:38:09;96463.66;;;0.97;95.41
79242;BME280;68670;48.720;9.118;2024-03-08T07:40:41;96460.97;;;0.97;95.13
79242;BME280;68670;48.720;9.118;2024-03-08T07:43:10;96459.47;;;0.94;94.71
79242;BME280;68670;48.720;9.118;2024-03-08T07:45:38;96463.88;;;1.02;94.51
79242;BME280;68670;48.720;9.118;2024-03-08T07:48:04;96461.06;;;1.10;94.15
79242;BME280;68670;48.720;9.118;2024-03-08T07:50:37;96456.50;;;1.11;93.71
79242;BME280;68670;48.720;9.118;2024-03-08T07:53:08;96454.69;;;1.18;94.05
79242;BME280;68670;48.720;9.118;2024-03-08T07:55:36;96447.44;;;1.18;93.94
79242;BME280;68670;48.720;9.118;2024-03-08T07:58:02;96455.00;;;1.29;93.19
79242;BME280;68670;48.720;9.118;2024-03-08T08:00:28;96445.25;;;1.28;93.42
79242;BME280;68670;48.720;9.118;2024-03-08T08:02:56;96430.53;;;1.38;93.25
79242;BME280;68670;48.720;9.118;2024-03-08T08:05:22;96442.63;;;1.42;93.37
79242;BME280;68670;48.720;9.118;2024-03-08T08:07:47;96431.69;;;1.50;92.62
79242;BME280;68670;48.720;9.118;2024-03-08T08:10:13;96434.72;;;1.40;92.03
79242;BME280;68670;48.720;9.118;2024-03-08T08:12:48;96436.03;;;1.51;92.13
79242;BME280;68670;48.720;9.118;2024-03-08T08:15:19;96434.56;;;1.48;91.53
79242;BME280;68670;48.720;9.118;2024-03-08T08:17:44;96435.66;;;1.54;93.25
79242;BME280;68670;48.720;9.118;2024-03-08T08:20:10;96429.84;;;1.57;93.46
79242;BME280;68670;48.720;9.118;2024-03-08T08:22:39;96433.66;;;1.69;91.56
79242;BME280;68670;48.720;9.118;2024-03-08T08:25:05;96429.13;;;1.76;92.43
79242;BME280;68670;48.720;9.118;2024-03-08T08:27:33;96430.00;;;1.83;93.70
79242;BME280;68670;48.720;9.118;2024-03-08T08:29:58;96428.81;;;1.99;92.83
79242;BME280;68670;48.720;9.118;2024-03-08T08:32:24;96419.69;;;1.93;89.63
79242;BME280;68670;48.720;9.118;2024-03-08T08:34:52;96415.94;;;1.94;89.56
79242;BME280;68670;48.720;9.118;2024-03-08T08:37:17;96421.94;;;1.96;90.48
79242;BME280;68670;48.720;9.118;2024-03-08T08:39:45;96425.47;;;1.90;89.93
79242;BME280;68670;48.720;9.118;2024-03-08T08:42:12;96415.50;;;1.91;90.22
79242;BME280;68670;48.720;9.118;2024-03-08T08:44:38;96422.56;;;1.98;90.12
79242;BME280;68670;48.720;9.118;2024-03-08T08:47:04;96413.50;;;2.13;90.95
79242;BME280;68670;48.720;9.118;2024-03-08T08:49:29;96412.69;;;2.19;90.44
79242;BME280;68670;48.720;9.118;2024-03-08T08:51:57;96407.31;;;2.19;88.58
79242;BME280;68670;48.720;9.118;2024-03-08T08:54:23;96414.78;;;2.17;88.92
79242;BME280;68670;48.720;9.118;2024-03-08T08:56:50;96410.88;;;2.26;89.53
79242;BME280;68670;48.720;9.118;2024-03-08T08:59:15;96415.00;;;2.22;88.17
79242;BME280;68670;48.720;9.118;2024-03-08T09:01:44;96414.75;;;2.10;88.54
79242;BME280;68670;48.720;9.118;2024-03-08T09:04:14;96418.91;;;2.13;87.72
79242;BME280;68670;48.720;9.118;2024-03-08T09:06:39;96407.28;;;2.12;87.13
79242;BME280;68670;48.720;9.118;2024-03-08T09:09:09;96409.53;;;2.09;87.03
79242;BME280;68670;48.720;9.118;2024-03-08T09:11:36;96407.50;;;2.17;87.83
79242;BME280;68670;48.720;9.118;2024-03-08T09:14:07;96399.81;;;2.21;88.89
79242;BME280;68670;48.720;9.118;2024-03-08T09:16:39;96401.44;;;2.09;87.86
79242;BME280;68670;48.720;9.118;2024-03-08T09:19:05;96398.72;;;2.09;87.91
79242;BME280;68670;48.720;9.118;2024-03-08T09:21:32;96390.88;;;2.20;87.57
79242;BME280;68670;48.720;9.118;2024-03-08T09:23:57;96394.44;;;2.21;87.89
79242;BME280;68670;48.720;9.118;2024-03-08T09:26:23;96394.44;;;2.21;86.93
79242;BME280;68670;48.720;9.118;2024-03-08T09:28:49;96395.25;;;2.28;87.88
79242;BME280;68670;48.720;9.118;2024-03-08T09:31:16;96392.78;;;2.33;87.39
79242;BME280;68670;48.720;9.118;2024-03-08T09:33:42;96384.03;;;2.31;86.30
79242;BME280;68670;48.720;9.118;2024-03-08T09:36:07;96386.56;;;2.39;86.76
79242;BME280;68670;48.720;9.118;2024-03-08T09:38:33;96380.78;;;2.49;86.48
79242;BME280;68670;48.720;9.118;2024-03-08T09:41:01;96376.19;;;2.49;85.31
79242;BME280;68670;48.720;9.118;2024-03-08T09:43:28;96382.63;;;2.48;86.48
79242;BME280;68670;48.720;9.118;2024-03-08T09:45:53;96376.59;;;2.46;86.76
79242;BME280;68670;48.720;9.118;2024-03-08T09:48:21;96379.31;;;2.53;85.76
79242;BME280;68670;48.720;9.118;2024-03-08T09:50:47;96380.38;;;2.58;86.62
79242;BME280;68670;48.720;9.118;2024-03-08T09:53:13;96377.25;;;2.55;85.49
79242;BME280;68670;48.720;9.118;2024-03-08T09:55:46;96374.56;;;2.55;86.81
79242;BME280;68670;48.720;9.118;2024-03-08T09:58:16;96368.94;;;2.56;85.13
79242;BME280;68670;48.720;9.118;2024-03-08T10:01:01;96364.78;;;2.74;85.46
79242;BME280;68670;48.720;9.118;2024-03-08T10:03:30;96370.00;;;2.82;86.39
79242;BME280;68670;48.720;9.118;2024-03-08T10:05:57;96359.16;;;2.95;85.44
79242;BME280;68670;48.720;9.118;2024-03-08T10:08:28;96358.75;;;3.11;86.33
79242;BME280;68670;48.720;9.118;2024-03-08T10:10:59;96352.28;;;3.12;84.62
79242;BME280;68670;48.720;9.118;2024-03-08T10:13:28;96359.78;;;3.23;85.72
79242;BME280;68670;48.720;9.118;2024-03-08T10:16:00;96356.22;;;3.29;85.73
79242;BME280;68670;48.720;9.118;2024-03-08T10:18:26;96351.00;;;3.28;83.46
79242;BME280;68670;48.720;9.118;2024-03-08T10:21:05;96353.34;;;3.24;83.73
79242;BME280;68670;48.720;9.118;2024-03-08T10:23:32;96347.47;;;3.27;83.72
79242;BME280;68670;48.720;9.118;2024-03-08T10:26:09;96350.38;;;3.26;83.31
79242;BME280;68670;48.720;9.118;2024-03-08T10:28:37;96346.00;;;3.31;84.75
79242;BME280;68670;48.720;9.118;2024-03-08T10:31:03;96344.75;;;3.34;84.90
79242;BME280;68670;48.720;9.118;2024-03-08T10:33:31;96342.03;;;3.34;83.81
79242;BME280;68670;48.720;9.118;2024-03-08T10:35:57;96337.94;;;3.25;83.12
79242;BME280;68670;48.720;9.118;2024-03-08T10:38:23;96330.19;;;3.35;84.73
79242;BME280;68670;48.720;9.118;2024-03-08T10:40:56;96329.09;;;3.56;83.31
79242;BME280;68670;48.720;9.118;2024-03-08T10:43:24;96326.13;;;3.64;82.73
79242;BME280;68670;48.720;9.118;2024-03-08T10:46:23;96329.88;;;3.63;83.61
79242;BME280;68670;48.720;9.118;2024-03-08T10:48:57;96326.78;;;3.59;81.68
79242;BME280;68670;48.720;9.118;2024-03-08T10:51:25;96311.56;;;3.65;82.04
79242;BME280;68670;48.720;9.118;2024-03-08T10:53:52;96324.03;;;3.72;82.56
79242;BME280;68670;48.720;9.118;2024-03-08T10:56:17;96321.09;;;3.74;81.29
79242;BME280;68670;48.720;9.118;2024-03-08T10:58:45;96318.69;;;3.97;83.38
79242;BME280;68670;48.720;9.118;2024-03-08T11:01:11;96320.16;;;4.00;79.85
79242;BME280;68670;48.720;9.118;2024-03-08T11:06:08;96315.06;;;4.17;80.29
79242;BME280;68670;48.720;9.118;2024-03-08T11:08:39;96310.88;;;4.21;80.20
79242;BME280;68670;48.720;9.118;2024-03-08T11:11:09;96312.97;;;4.19;79.61
79242;BME280;68670;48.720;9.118;2024-03-08T11:13:48;96313.81;;;4.19;79.37
79242;BME280;68670;48.720;9.118;2024-03-08T11:16:37;96300.19;;;4.26;78.65
79242;BME280;68670;48.720;9.118;2024-03-08T11:21:38;96302.00;;;4.38;78.51
79242;BME280;68670;48.720;9.118;2024-03-08T11:24:10;96305.72;;;4.44;79.95
79242;BME280;68670;48.720;9.118;2024-03-08T11:26:39;96290.91;;;4.71;79.41
79242;BME280;68670;48.720;9.118;2024-03-08T11:31:52;96291.97;;;4.70;78.73
79242;BME280;68670;48.720;9.118;2024-03-08T11:34:33;96285.00;;;4.81;77.51
79242;BME280;68670;48.720;9.118;2024-03-08T11:36:59;96282.25;;;5.24;77.20
79242;BME280;68670;48.720;9.118;2024-03-08T11:39:28;96277.00;;;5.29;76.11
79242;BME280;68670;48.720;9.118;2024-03-08T11:41:53;96282.91;;;5.45;74.90
79242;BME280;68670;48.720;9.118;2024-03-08T11:44:19;96275.03;;;5.73;73.94
79242;BME280;68670;48.720;9.118;2024-03-08T11:46:48;96270.22;;;5.75;72.64
79242;BME280;68670;48.720;9.118;2024-03-08T11:49:14;96257.28;;;6.07;71.22
79242;BME280;68670;48.720;9.118;2024-03-08T11:51:43;96251.44;;;5.85;73.27
79242;BME280;68670;48.720;9.118;2024-03-08T11:54:12;96252.38;;;5.97;72.36
79242;BME280;68670;48.720;9.118;2024-03-08T11:56:38;96254.84;;;6.29;70.80
79242;BME280;68670;48.720;9.118;2024-03-08T11:59:05;96245.19;;;6.33;70.83
79242;BME280;68670;48.720;9.118;2024-03-08T12:01:37;96246.47;;;6.30;71.02
79242;BME280;68670;48.720;9.118;2024-03-08T12:04:03;96242.78;;;6.25;70.05
79242;BME280;68670;48.720;9.118;2024-03-08T12:06:38;96236.31;;;6.37;70.98
79242;BME280;68670;48.720;9.118;2024-03-08T12:09:07;96219.53;;;6.40;68.74
79242;BME280;68670;48.720;9.118;2024-03-08T12:11:34;96229.00;;;6.38;68.61
79242;BME280;68670;48.720;9.118;2024-03-08T12:14:04;96227.28;;;7.02;70.10
79242;BME280;68670;48.720;9.118;2024-03-08T12:16:29;96223.97;;;6.77;69.17
79242;BME280;68670;48.720;9.118;2024-03-08T12:18:55;96217.53;;;6.59;70.26
79242;BME280;68670;48.720;9.118;2024-03-08T12:21:26;96212.84;;;6.90;69.49
79242;BME280;68670;48.720;9.118;2024-03-08T12:26:29;96209.53;;;6.99;67.80
79242;BME280;68670;48.720;9.118;2024-03-08T12:29:24;96214.34;;;7.21;67.40
79242;BME280;68670;48.720;9.118;2024-03-08T12:31:58;96207.53;;;7.98;64.26
79242;BME280;68670;48.720;9.118;2024-03-08T12:34:26;96189.72;;;9.25;60.60
79242;BME280;68670;48.720;9.118;2024-03-08T12:36:56;96198.59;;;9.15;59.93
79242;BME280;68670;48.720;9.118;2024-03-08T12:39:22;96199.94;;;9.73;58.10
79242;BME280;68670;48.720;9.118;2024-03-08T12:41:52;96195.47;;;8.90;59.33
79242;BME280;68670;48.720;9.118;2024-03-08T12:44:24;96197.72;;;8.93;58.55
79242;BME280;68670;48.720;9.118;2024-03-08T12:46:53;96184.63;;;9.77;58.39
79242;BME280;68670;48.720;9.118;2024-03-08T12:49:19;96179.78;;;10.28;58.23
79242;BME280;68670;48.720;9.118;2024-03-08T12:51:49;96174.94;;;11.04;56.24
79242;BME280;68670;48.720;9.118;2024-03-08T12:54:14;96159.94;;;11.74;52.98
79242;BME280;68670;48.720;9.118;2024-03-08T12:56:44;96147.53;;;12.49;50.84
79242;BME280;68670;48.720;9.118;2024-03-08T12:59:12;96149.72;;;12.42;50.65
79242;BME280;68670;48.720;9.118;2024-03-08T13:01:42;96158.41;;;12.03;49.76
79242;BME280;68670;48.720;9.118;2024-03-08T13:04:10;96152.88;;;11.83;49.29
79242;BME280;68670;48.720;9.118;2024-03-08T13:06:38;96140.63;;;12.36;48.23
79242;BME280;68670;48.720;9.118;2024-03-08T13:09:04;96129.38;;;12.23;49.13
79242;BME280;68670;48.720;9.118;2024-03-08T13:11:31;96130.50;;;12.27;50.15
79242;BME280;68670;48.720;9.118;2024-03-08T13:14:01;96115.38;;;12.75;50.53
79242;BME280;68670;48.720;9.118;2024-03-08T13:16:30;96126.38;;;12.70;48.79
79242;BME280;68670;48.720;9.118;2024-03-08T13:18:55;96124.72;;;12.94;48.22
79242;BME280;68670;48.720;9.118;2024-03-08T13:21:22;96121.94;;;13.30;47.08